createdAt,value
2023-03-19T00:00:25.000Z,0
2023-03-19T00:01:42.000Z,0
2023-03-19T00:02:58.000Z,0
2023-03-19T00:04:14.958Z,0
2023-03-19T00:05:30.000Z,0
2023-03-19T00:06:47.000Z,0
2023-03-19T00:08:03.000Z,0
2023-03-19T00:09:19.000Z,0
2023-03-19T00:10:36.395Z,0
2023-03-19T00:11:52.000Z,0
2023-03-19T00:13:08.000Z,0
2023-03-19T00:14:24.000Z,0
2023-03-19T00:15:40.000Z,0
2023-03-19T00:16:56.000Z,0
2023-03-19T00:18:12.000Z,0
2023-03-19T00:19:29.437Z,0
2023-03-19T00:20:45.699Z,0
2023-03-19T00:22:01.000Z,0
2023-03-19T00:23:18.000Z,0
2023-03-19T00:24:34.000Z,0
2023-03-19T00:25:50.000Z,0
2023-03-19T00:27:05.000Z,0
2023-03-19T00:28:21.000Z,0
2023-03-19T00:29:36.000Z,0
2023-03-19T00:30:51.000Z,0
2023-03-19T00:32:08.000Z,0
2023-03-19T00:33:24.000Z,0
2023-03-19T00:34:40.000Z,0
2023-03-19T00:35:56.000Z,0
2023-03-19T00:37:13.000Z,0
2023-03-19T00:38:29.000Z,0
2023-03-19T00:39:45.000Z,0
2023-03-19T00:41:02.000Z,0
2023-03-19T00:42:18.000Z,0
2023-03-19T00:43:34.958Z,0
2023-03-19T00:44:51.000Z,0
2023-03-19T00:46:07.000Z,0
2023-03-19T00:47:22.000Z,0
2023-03-19T00:48:38.000Z,0
2023-03-19T00:49:55.000Z,0
2023-03-19T00:51:11.000Z,0
2023-03-19T00:52:27.000Z,0
2023-03-19T00:53:44.000Z,0
2023-03-19T00:55:00.000Z,0
2023-03-19T00:56:15.000Z,0
2023-03-19T00:57:31.182Z,0
2023-03-19T00:58:47.000Z,0
2023-03-19T01:00:03.786Z,0
2023-03-19T01:01:19.000Z,0
2023-03-19T01:02:36.000Z,0
2023-03-19T01:03:52.000Z,0
2023-03-19T01:05:08.000Z,0
2023-03-19T01:06:24.000Z,0
2023-03-19T01:07:41.000Z,0
2023-03-19T01:08:57.000Z,0
2023-03-19T01:10:14.069Z,0
2023-03-19T01:11:30.000Z,0
2023-03-19T01:12:46.000Z,0
2023-03-19T01:14:01.000Z,0
2023-03-19T01:15:17.000Z,0
2023-03-19T01:16:34.000Z,0
2023-03-19T01:17:50.000Z,0
2023-03-19T01:19:06.000Z,0
2023-03-19T01:20:23.000Z,0
2023-03-19T01:21:39.000Z,0
2023-03-19T01:22:54.994Z,0
2023-03-19T01:24:10.000Z,0
2023-03-19T01:25:25.000Z,0
2023-03-19T01:26:40.000Z,0
2023-03-19T01:27:56.000Z,0
2023-03-19T01:29:13.470Z,0
2023-03-19T01:30:29.000Z,0
2023-03-19T01:31:45.000Z,0
2023-03-19T01:33:02.330Z,0
2023-03-19T01:34:18.000Z,0
2023-03-19T01:35:34.000Z,0
2023-03-19T01:36:51.170Z,0
2023-03-19T01:38:07.000Z,0
2023-03-19T01:39:23.768Z,0
2023-03-19T01:40:39.000Z,0
2023-03-19T01:41:56.337Z,0
2023-03-19T01:43:11.000Z,0
2023-03-19T01:44:27.000Z,0
2023-03-19T01:45:43.000Z,0
2023-03-19T01:47:00.000Z,0
2023-03-19T01:48:16.789Z,0
2023-03-19T01:49:32.000Z,0
2023-03-19T01:50:49.345Z,0
2023-03-19T01:52:04.675Z,0
2023-03-19T01:53:19.000Z,0
2023-03-19T01:54:35.000Z,0
2023-03-19T01:55:50.000Z,0
2023-03-19T01:57:06.000Z,0
2023-03-19T01:58:22.000Z,0
2023-03-19T01:59:39.000Z,0
2023-03-19T02:00:55.000Z,0
2023-03-19T02:02:11.000Z,0
2023-03-19T02:03:28.000Z,0
2023-03-19T02:04:44.000Z,0
2023-03-19T02:06:00.000Z,0
2023-03-19T02:07:16.000Z,0
2023-03-19T02:08:33.000Z,0
2023-03-19T02:09:49.000Z,0
2023-03-19T02:11:05.000Z,0
2023-03-19T02:12:21.355Z,0
2023-03-19T02:13:37.000Z,0
2023-03-19T02:14:53.910Z,0
2023-03-19T02:16:09.000Z,0
2023-03-19T02:17:26.000Z,0
2023-03-19T02:18:42.000Z,0
2023-03-19T02:19:58.000Z,0
2023-03-19T02:21:14.000Z,0
2023-03-19T02:22:29.000Z,0
2023-03-19T02:23:44.000Z,0
2023-03-19T02:25:00.000Z,0
2023-03-19T02:26:16.000Z,0
2023-03-19T02:27:32.000Z,0
2023-03-19T02:28:47.000Z,0
2023-03-19T02:30:04.000Z,0
2023-03-19T02:31:20.000Z,0
2023-03-19T02:32:36.000Z,0
2023-03-19T02:33:53.000Z,0
2023-03-19T02:35:09.000Z,0
2023-03-19T02:36:25.000Z,0
2023-03-19T02:37:41.000Z,0
2023-03-19T02:38:58.000Z,0
2023-03-19T02:40:14.000Z,0
2023-03-19T02:41:30.000Z,0
2023-03-19T02:42:47.000Z,0
2023-03-19T02:44:03.000Z,0
2023-03-19T02:45:18.000Z,0
2023-03-19T02:46:34.000Z,0
2023-03-19T02:47:51.000Z,0
2023-03-19T02:49:07.000Z,0
2023-03-19T02:50:23.000Z,0
2023-03-19T02:51:40.000Z,0
2023-03-19T02:52:56.000Z,0
2023-03-19T02:54:11.000Z,0
2023-03-19T02:55:27.000Z,0
2023-03-19T02:56:43.000Z,0
2023-03-19T02:57:59.000Z,0
2023-03-19T02:59:14.000Z,0
2023-03-19T03:00:30.000Z,0
2023-03-19T03:01:46.000Z,0
2023-03-19T03:03:02.000Z,0
2023-03-19T03:04:19.000Z,0
2023-03-19T03:05:35.000Z,0
2023-03-19T03:06:51.000Z,0
2023-03-19T03:08:08.217Z,0
2023-03-19T03:09:24.000Z,0
2023-03-19T03:10:40.000Z,0
2023-03-19T03:11:56.000Z,0
2023-03-19T03:13:13.000Z,0
2023-03-19T03:14:29.000Z,0
2023-03-19T03:15:45.000Z,0
2023-03-19T03:17:00.000Z,0
2023-03-19T03:18:17.000Z,0
2023-03-19T03:19:33.000Z,0
2023-03-19T03:20:49.000Z,0
2023-03-19T03:22:06.000Z,0
2023-03-19T03:23:22.000Z,0
2023-03-19T03:24:38.000Z,0
2023-03-19T03:25:54.000Z,0
2023-03-19T03:27:09.000Z,0
2023-03-19T03:28:25.000Z,0
2023-03-19T03:29:40.000Z,0
2023-03-19T03:30:56.000Z,0
2023-03-19T03:32:12.000Z,0
2023-03-19T03:33:28.000Z,0
2023-03-19T03:34:45.000Z,0
2023-03-19T03:36:01.000Z,0
2023-03-19T03:37:17.000Z,0
2023-03-19T03:38:33.000Z,0
2023-03-19T03:39:50.000Z,0
2023-03-19T03:41:06.000Z,0
2023-03-19T03:42:23.045Z,0
2023-03-19T03:43:39.000Z,0
2023-03-19T03:44:55.000Z,0
2023-03-19T03:46:11.000Z,0
2023-03-19T03:47:26.000Z,0
2023-03-19T03:48:43.000Z,0
2023-03-19T03:49:59.000Z,0
2023-03-19T03:51:15.000Z,0
2023-03-19T03:52:32.000Z,0
2023-03-19T03:53:48.000Z,0
2023-03-19T03:55:04.956Z,0
2023-03-19T03:56:20.000Z,0
2023-03-19T03:57:35.000Z,0
2023-03-19T03:58:50.000Z,0
2023-03-19T04:00:05.000Z,0
2023-03-19T04:01:22.000Z,0
2023-03-19T04:02:38.000Z,0
2023-03-19T04:03:54.000Z,0
2023-03-19T04:05:11.000Z,0
2023-03-19T04:06:27.000Z,0
2023-03-19T04:07:43.918Z,0
2023-03-19T04:08:59.000Z,0
2023-03-19T04:10:16.493Z,0
2023-03-19T04:11:32.000Z,0
2023-03-19T04:12:48.000Z,0
2023-03-19T04:14:05.000Z,0
2023-03-19T04:15:21.000Z,0
2023-03-19T04:16:36.000Z,0
2023-03-19T04:17:52.000Z,0
2023-03-19T04:19:09.613Z,0
2023-03-19T04:20:25.798Z,0
2023-03-19T04:21:41.000Z,0
2023-03-19T04:22:58.000Z,0
2023-03-19T04:24:14.000Z,0
2023-03-19T04:25:29.000Z,0
2023-03-19T04:26:45.000Z,0
2023-03-19T04:28:01.000Z,0
2023-03-19T04:29:17.000Z,0
2023-03-19T04:30:32.000Z,0
2023-03-19T04:31:48.000Z,0
2023-03-19T04:33:04.753Z,0
2023-03-19T04:34:20.000Z,0
2023-03-19T04:35:37.343Z,0
2023-03-19T04:36:53.000Z,0
2023-03-19T04:38:09.000Z,0
2023-03-19T04:39:25.000Z,0
2023-03-19T04:40:42.000Z,0
2023-03-19T04:41:58.000Z,0
2023-03-19T04:43:14.000Z,0
2023-03-19T04:44:31.000Z,0
2023-03-19T04:45:47.611Z,0
2023-03-19T04:47:03.000Z,0
2023-03-19T04:48:19.199Z,0
2023-03-19T04:49:35.000Z,0
2023-03-19T04:50:51.000Z,0
2023-03-19T04:52:07.000Z,0
2023-03-19T04:53:24.000Z,0
2023-03-19T04:54:40.000Z,0
2023-03-19T04:55:56.000Z,0
2023-03-19T04:57:12.000Z,0
2023-03-19T04:58:27.000Z,0
2023-03-19T04:59:43.000Z,0
2023-03-19T05:00:58.000Z,0
2023-03-19T05:02:14.000Z,0
2023-03-19T05:03:30.000Z,0
2023-03-19T05:04:46.000Z,0
2023-03-19T05:06:03.000Z,0
2023-03-19T05:07:19.000Z,0
2023-03-19T05:08:35.000Z,0
2023-03-19T05:09:52.174Z,0
2023-03-19T05:11:08.000Z,0
2023-03-19T05:12:24.000Z,1
2023-03-19T05:13:40.000Z,0
2023-03-19T05:14:56.000Z,1
2023-03-19T05:16:13.000Z,1
2023-03-19T05:17:29.000Z,0
2023-03-19T05:18:44.000Z,0
2023-03-19T05:20:01.000Z,2
2023-03-19T05:21:17.000Z,1
2023-03-19T05:22:33.791Z,1
2023-03-19T05:23:49.000Z,2
2023-03-19T05:25:06.000Z,1
2023-03-19T05:26:22.000Z,2
2023-03-19T05:27:37.000Z,9
2023-03-19T05:28:52.984Z,9
2023-03-19T05:30:08.000Z,9
2023-03-19T05:31:23.000Z,9
2023-03-19T05:32:39.000Z,17
2023-03-19T05:33:55.000Z,17
2023-03-19T05:35:11.000Z,19
2023-03-19T05:36:28.441Z,25
2023-03-19T05:37:44.000Z,26
2023-03-19T05:39:00.000Z,31
2023-03-19T05:40:17.138Z,35
2023-03-19T05:41:33.000Z,39
2023-03-19T05:42:49.000Z,44
2023-03-19T05:44:05.000Z,52
2023-03-19T05:45:21.000Z,55
2023-03-19T05:46:38.000Z,61
2023-03-19T05:47:53.000Z,67
2023-03-19T05:49:09.000Z,68
2023-03-19T05:50:25.000Z,69
2023-03-19T05:51:42.000Z,75
2023-03-19T05:52:58.000Z,77
2023-03-19T05:54:14.000Z,79
2023-03-19T05:55:30.000Z,80
2023-03-19T05:56:45.000Z,95
2023-03-19T05:58:01.000Z,123
2023-03-19T05:59:17.000Z,125
2023-03-19T06:00:33.000Z,133
2023-03-19T06:01:48.000Z,146
2023-03-19T06:03:04.000Z,154
2023-03-19T06:04:20.000Z,172
2023-03-19T06:05:36.000Z,194
2023-03-19T06:06:52.000Z,210
2023-03-19T06:08:09.000Z,231
2023-03-19T06:09:25.000Z,250
2023-03-19T06:10:41.000Z,267
2023-03-19T06:11:57.000Z,288
2023-03-19T06:13:14.000Z,304
2023-03-19T06:14:30.000Z,314
2023-03-19T06:15:46.000Z,347
2023-03-19T06:17:02.000Z,382
2023-03-19T06:18:18.000Z,401
2023-03-19T06:19:34.000Z,412
2023-03-19T06:20:50.000Z,409
2023-03-19T06:22:06.000Z,432
2023-03-19T06:23:22.000Z,459
2023-03-19T06:24:39.000Z,464
2023-03-19T06:25:55.000Z,477
2023-03-19T06:27:11.890Z,515
2023-03-19T06:28:27.000Z,589
2023-03-19T06:29:44.000Z,641
2023-03-19T06:31:00.000Z,712
2023-03-19T06:32:16.000Z,766
2023-03-19T06:33:32.095Z,830
2023-03-19T06:34:47.000Z,906
2023-03-19T06:36:03.000Z,894
2023-03-19T06:37:19.000Z,1182
2023-03-19T06:38:35.103Z,1182
2023-03-19T06:39:50.000Z,1154
2023-03-19T06:41:06.000Z,1459
2023-03-19T06:42:22.000Z,1436
2023-03-19T06:43:37.000Z,1659
2023-03-19T06:44:54.000Z,1616
2023-03-19T06:46:10.000Z,1558
2023-03-19T06:47:26.000Z,1128
2023-03-19T06:48:42.000Z,1394
2023-03-19T06:49:58.000Z,7218
2023-03-19T06:51:15.000Z,8615
2023-03-19T06:52:31.669Z,4052
2023-03-19T06:53:47.000Z,2530
2023-03-19T06:55:03.000Z,9084
2023-03-19T06:56:20.000Z,3871
2023-03-19T06:57:36.000Z,7059
2023-03-19T06:58:52.000Z,2068
2023-03-19T07:00:07.000Z,5044
2023-03-19T07:01:24.000Z,12237
2023-03-19T07:02:40.000Z,2404
2023-03-19T07:03:56.000Z,3693
2023-03-19T07:05:12.031Z,15387
2023-03-19T07:06:27.000Z,6938
2023-03-19T07:07:43.000Z,3342
2023-03-19T07:08:58.783Z,2245
2023-03-19T07:10:13.000Z,1966
2023-03-19T07:11:30.000Z,1860
2023-03-19T07:12:46.000Z,1745
2023-03-19T07:14:02.000Z,2616
2023-03-19T07:15:18.000Z,2662
2023-03-19T07:16:34.000Z,1442
2023-03-19T07:17:51.430Z,6020
2023-03-19T07:19:07.660Z,2572
2023-03-19T07:20:23.000Z,8393
2023-03-19T07:21:39.000Z,4840
2023-03-19T07:22:56.000Z,3131
2023-03-19T07:24:12.000Z,3209
2023-03-19T07:25:28.000Z,2282
2023-03-19T07:26:43.000Z,2135
2023-03-19T07:28:00.000Z,1603
2023-03-19T07:29:16.000Z,1316
2023-03-19T07:30:32.786Z,951
2023-03-19T07:31:48.000Z,745
2023-03-19T07:33:04.000Z,917
2023-03-19T07:34:21.000Z,1212
2023-03-19T07:35:36.000Z,1541
2023-03-19T07:36:51.977Z,1457
2023-03-19T07:38:07.000Z,2349
2023-03-19T07:39:24.000Z,1923
2023-03-19T07:40:39.000Z,1503
2023-03-19T07:41:54.000Z,1241
2023-03-19T07:43:10.000Z,1132
2023-03-19T07:44:27.000Z,1114
2023-03-19T07:45:43.000Z,1275
2023-03-19T07:46:59.000Z,1000
2023-03-19T07:48:15.000Z,858
2023-03-19T07:49:32.000Z,718
2023-03-19T07:50:48.000Z,663
2023-03-19T07:52:04.000Z,650
2023-03-19T07:53:20.000Z,666
2023-03-19T07:54:37.000Z,931
2023-03-19T07:55:53.000Z,1790
2023-03-19T07:57:09.000Z,1603
2023-03-19T07:58:24.000Z,1726
2023-03-19T07:59:40.000Z,1482
2023-03-19T08:00:57.000Z,1679
2023-03-19T08:02:13.000Z,2053
2023-03-19T08:03:29.000Z,1841
2023-03-19T08:04:45.000Z,1461
2023-03-19T08:06:02.000Z,1501
2023-03-19T08:07:17.000Z,1484
2023-03-19T08:08:32.916Z,1841
2023-03-19T08:09:48.000Z,2227
2023-03-19T08:11:04.000Z,2304
2023-03-19T08:12:19.000Z,2117
2023-03-19T08:13:35.000Z,2408
2023-03-19T08:14:51.000Z,3414
2023-03-19T08:16:08.000Z,4070
2023-03-19T08:17:24.000Z,4710
2023-03-19T08:18:40.000Z,5284
2023-03-19T08:19:56.000Z,5975
2023-03-19T08:21:13.000Z,4304
2023-03-19T08:22:29.000Z,3014
2023-03-19T08:23:45.000Z,2268
2023-03-19T08:25:01.000Z,1570
2023-03-19T08:26:17.000Z,1390
2023-03-19T08:27:34.000Z,1453
2023-03-19T08:28:49.000Z,1667
2023-03-19T08:30:05.000Z,1821
2023-03-19T08:31:21.000Z,2186
2023-03-19T08:32:38.000Z,2543
2023-03-19T08:33:54.000Z,2978
2023-03-19T08:35:10.000Z,3159
2023-03-19T08:36:26.000Z,4280
2023-03-19T08:37:43.000Z,3453
2023-03-19T08:38:59.000Z,2023
2023-03-19T08:40:15.000Z,2668
2023-03-19T08:41:31.000Z,3266
2023-03-19T08:42:48.000Z,8345
2023-03-19T08:44:03.000Z,4912
2023-03-19T08:45:18.000Z,5174
2023-03-19T08:46:35.009Z,5722
2023-03-19T08:47:50.000Z,6901
2023-03-19T08:49:06.000Z,3825
2023-03-19T08:50:21.000Z,3564
2023-03-19T08:51:37.000Z,3704
2023-03-19T08:52:53.979Z,3535
2023-03-19T08:54:10.000Z,6772
2023-03-19T08:55:26.000Z,6728
2023-03-19T08:56:42.000Z,6793
2023-03-19T08:57:58.000Z,5904
2023-03-19T08:59:15.000Z,3937
2023-03-19T09:00:31.000Z,3384
2023-03-19T09:01:47.000Z,2132
2023-03-19T09:03:03.000Z,1719
2023-03-19T09:04:20.000Z,1961
2023-03-19T09:05:36.000Z,1864
2023-03-19T09:06:51.000Z,1679
2023-03-19T09:08:07.000Z,1022
2023-03-19T09:09:24.290Z,919
2023-03-19T09:10:40.000Z,5030
2023-03-19T09:11:56.751Z,4509
2023-03-19T09:13:12.000Z,3171
2023-03-19T09:14:28.000Z,3172
2023-03-19T09:15:45.000Z,2014
2023-03-19T09:17:01.000Z,1780
2023-03-19T09:18:17.000Z,2332
2023-03-19T09:19:33.000Z,4008
2023-03-19T09:20:50.000Z,3109
2023-03-19T09:22:06.000Z,3814
2023-03-19T09:23:21.000Z,4685
2023-03-19T09:24:38.085Z,3603
2023-03-19T09:25:54.000Z,2693
2023-03-19T09:27:09.000Z,2104
2023-03-19T09:28:24.000Z,2236
2023-03-19T09:29:40.000Z,2165
2023-03-19T09:30:56.000Z,2001
2023-03-19T09:32:11.000Z,1990
2023-03-19T09:33:27.000Z,1707
2023-03-19T09:34:43.000Z,1237
2023-03-19T09:36:00.000Z,1017
2023-03-19T09:37:16.000Z,1650
2023-03-19T09:38:32.000Z,1804
2023-03-19T09:39:48.000Z,2387
2023-03-19T09:41:04.000Z,2342
2023-03-19T09:42:21.000Z,1137
2023-03-19T09:43:37.000Z,6617
2023-03-19T09:44:53.000Z,4983
2023-03-19T09:46:09.000Z,3936
2023-03-19T09:47:26.000Z,3592
2023-03-19T09:48:41.000Z,4351
2023-03-19T09:49:57.000Z,3992
2023-03-19T09:51:13.000Z,3722
2023-03-19T09:52:30.000Z,34369
2023-03-19T09:53:46.000Z,22845
2023-03-19T09:55:02.000Z,17592
2023-03-19T09:56:18.000Z,12052
2023-03-19T09:57:34.000Z,7340
2023-03-19T09:58:49.000Z,5418
2023-03-19T10:00:04.000Z,3636
2023-03-19T10:01:19.000Z,2427
2023-03-19T10:02:36.000Z,1561
2023-03-19T10:05:08.000Z,4672
2023-03-19T10:06:24.000Z,3781
2023-03-19T10:07:40.000Z,2334
2023-03-19T10:08:57.000Z,4133
2023-03-19T10:10:13.000Z,4441
2023-03-19T10:11:29.000Z,3206
2023-03-19T10:12:45.000Z,2191
2023-03-19T10:14:02.000Z,3393
2023-03-19T10:15:18.000Z,2347
2023-03-19T10:16:34.000Z,2070
2023-03-19T10:17:49.000Z,1560
2023-03-19T10:19:06.000Z,1684
2023-03-19T10:20:22.594Z,1673
2023-03-19T10:21:38.000Z,1738
2023-03-19T10:22:54.000Z,2770
2023-03-19T10:24:10.000Z,2514
2023-03-19T10:25:27.000Z,7390
2023-03-19T10:26:43.000Z,3576
2023-03-19T10:27:58.000Z,13154
2023-03-19T10:29:13.000Z,8154
2023-03-19T10:30:30.000Z,4960
2023-03-19T10:31:45.000Z,3657
2023-03-19T10:33:00.000Z,2461
2023-03-19T10:34:16.000Z,2109
2023-03-19T10:35:33.000Z,2100
2023-03-19T10:36:49.000Z,1865
2023-03-19T10:38:05.000Z,1584
2023-03-19T10:39:21.000Z,1235
2023-03-19T10:40:38.375Z,1513
2023-03-19T10:41:54.600Z,1706
2023-03-19T10:43:10.000Z,2298
2023-03-19T10:44:26.000Z,1923
2023-03-19T10:45:43.000Z,3906
2023-03-19T10:46:59.000Z,5635
2023-03-19T10:48:15.000Z,1643
2023-03-19T10:49:30.998Z,9328
2023-03-19T10:50:46.000Z,6346
2023-03-19T10:52:03.000Z,5334
2023-03-19T10:53:19.709Z,6497
2023-03-19T10:54:35.000Z,5374
2023-03-19T10:55:51.000Z,3233
2023-03-19T10:57:08.000Z,3711
2023-03-19T10:58:23.669Z,4172
2023-03-19T10:59:38.000Z,3531
2023-03-19T11:00:54.000Z,3054
2023-03-19T11:02:11.000Z,2399
2023-03-19T11:03:27.000Z,2275
2023-03-19T11:04:42.000Z,2711
2023-03-19T11:05:58.131Z,3146
2023-03-19T11:07:14.000Z,2746
2023-03-19T11:08:30.000Z,2585
2023-03-19T11:09:46.000Z,3121
2023-03-19T11:11:02.000Z,4222
2023-03-19T11:12:19.000Z,3222
2023-03-19T11:13:35.000Z,2442
2023-03-19T11:14:51.000Z,2378
2023-03-19T11:16:07.000Z,2267
2023-03-19T11:17:23.000Z,2662
2023-03-19T11:18:40.471Z,2630
2023-03-19T11:19:56.000Z,13985
2023-03-19T11:21:12.000Z,7243
2023-03-19T11:22:28.158Z,4765
2023-03-19T11:23:44.000Z,2934
2023-03-19T11:25:00.000Z,1739
2023-03-19T11:26:16.888Z,4566
2023-03-19T11:27:32.000Z,14629
2023-03-19T11:28:49.000Z,9769
2023-03-19T11:30:05.000Z,5190
2023-03-19T11:31:20.000Z,8824
2023-03-19T11:32:35.000Z,9193
2023-03-19T11:33:52.000Z,5058
2023-03-19T11:35:07.000Z,7463
2023-03-19T11:36:22.000Z,3221
2023-03-19T11:37:38.000Z,21271
2023-03-19T11:38:55.000Z,10532
2023-03-19T11:40:11.000Z,11767
2023-03-19T11:41:27.000Z,7140
2023-03-19T11:42:43.000Z,6448
2023-03-19T11:43:59.000Z,5573
2023-03-19T11:45:16.000Z,5079
2023-03-19T11:46:32.000Z,4924
2023-03-19T11:47:48.000Z,4520
2023-03-19T11:49:04.000Z,5071
2023-03-19T11:50:21.000Z,3535
2023-03-19T11:51:37.000Z,2818
2023-03-19T11:52:52.000Z,2789
2023-03-19T11:54:08.000Z,3159
2023-03-19T11:55:25.329Z,3181
2023-03-19T11:56:41.000Z,2808
2023-03-19T11:57:57.000Z,4215
2023-03-19T11:59:13.000Z,11179
2023-03-19T12:00:30.000Z,9492
2023-03-19T12:01:46.000Z,6070
2023-03-19T12:03:02.000Z,5161
2023-03-19T12:04:18.000Z,5407
2023-03-19T12:05:34.000Z,8073
2023-03-19T12:06:51.000Z,8624
2023-03-19T12:08:07.000Z,6488
2023-03-19T12:09:22.953Z,4338
2023-03-19T12:10:38.000Z,3763
2023-03-19T12:11:55.000Z,4688
2023-03-19T12:13:11.000Z,5053
2023-03-19T12:14:27.000Z,5619
2023-03-19T12:15:43.000Z,6183
2023-03-19T12:17:00.000Z,5151
2023-03-19T12:18:16.000Z,4486
2023-03-19T12:19:32.000Z,4220
2023-03-19T12:20:48.000Z,3495
2023-03-19T12:22:05.270Z,3108
2023-03-19T12:23:21.000Z,2774
2023-03-19T12:24:37.000Z,2528
2023-03-19T12:25:52.000Z,2553
2023-03-19T12:27:08.000Z,2404
2023-03-19T12:28:25.000Z,2369
2023-03-19T12:29:41.693Z,2491
2023-03-19T12:30:57.886Z,2524
2023-03-19T12:32:12.000Z,2993
2023-03-19T12:33:28.000Z,2956
2023-03-19T12:34:44.652Z,2838
2023-03-19T12:36:00.000Z,2794
2023-03-19T12:37:15.000Z,2775
2023-03-19T12:38:31.398Z,2534
2023-03-19T12:39:47.000Z,2310
2023-03-19T12:41:03.000Z,2044
2023-03-19T12:42:19.000Z,1820
2023-03-19T12:43:36.000Z,2125
2023-03-19T12:44:52.000Z,3380
2023-03-19T12:46:08.000Z,4204
2023-03-19T12:47:25.020Z,4877
2023-03-19T12:48:41.000Z,4328
2023-03-19T12:49:57.000Z,4103
2023-03-19T12:51:13.000Z,3664
2023-03-19T12:52:29.000Z,3256
2023-03-19T12:53:46.187Z,4382
2023-03-19T12:55:01.000Z,6185
2023-03-19T12:56:17.000Z,75833
2023-03-19T12:57:33.000Z,59845
2023-03-19T12:58:49.000Z,11071
2023-03-19T13:00:06.356Z,6007
2023-03-19T13:01:22.000Z,5730
2023-03-19T13:02:38.000Z,9474
2023-03-19T13:03:53.000Z,2754
2023-03-19T13:05:09.338Z,18971
2023-03-19T13:06:24.000Z,18015
2023-03-19T13:07:39.836Z,10769
2023-03-19T13:08:55.000Z,4162
2023-03-19T13:10:12.000Z,23384
2023-03-19T13:11:28.000Z,13965
2023-03-19T13:12:44.000Z,9025
2023-03-19T13:14:00.000Z,10386
2023-03-19T13:15:17.000Z,5707
2023-03-19T13:16:33.000Z,5666
2023-03-19T13:17:49.000Z,2732
2023-03-19T13:19:05.000Z,5936
2023-03-19T13:20:21.000Z,79837
2023-03-19T13:21:38.000Z,73072
2023-03-19T13:22:54.000Z,59811
2023-03-19T13:24:09.000Z,10891
2023-03-19T13:25:25.000Z,7094
2023-03-19T13:26:42.349Z,8897
2023-03-19T13:27:58.000Z,7177
2023-03-19T13:29:14.000Z,5689
2023-03-19T13:30:30.000Z,4899
2023-03-19T13:31:47.000Z,4652
2023-03-19T13:33:03.000Z,4323
2023-03-19T13:34:19.000Z,4492
2023-03-19T13:35:35.000Z,4289
2023-03-19T13:36:51.000Z,4204
2023-03-19T13:38:08.471Z,3831
2023-03-19T13:39:24.000Z,3652
2023-03-19T13:40:39.000Z,3658
2023-03-19T13:41:56.196Z,3881
2023-03-19T13:43:12.413Z,4180
2023-03-19T13:44:28.646Z,4777
2023-03-19T13:45:43.894Z,5102
2023-03-19T13:46:59.160Z,5071
2023-03-19T13:48:14.000Z,4876
2023-03-19T13:49:29.000Z,4922
2023-03-19T13:50:45.904Z,5016
2023-03-19T13:52:01.000Z,3914
2023-03-19T13:53:18.000Z,3838
2023-03-19T13:54:34.000Z,16254
2023-03-19T13:55:50.000Z,12204
2023-03-19T13:57:06.000Z,7359
2023-03-19T13:58:23.000Z,2498
2023-03-19T13:59:39.000Z,14340
2023-03-19T14:00:55.851Z,13115
2023-03-19T14:02:11.000Z,7114
2023-03-19T14:03:27.000Z,6696
2023-03-19T14:04:44.000Z,5800
2023-03-19T14:05:59.000Z,5454
2023-03-19T14:07:15.000Z,4785
2023-03-19T14:08:31.000Z,5028
2023-03-19T14:09:48.000Z,5182
2023-03-19T14:11:04.000Z,4239
2023-03-19T14:12:20.000Z,3680
2023-03-19T14:13:36.000Z,3492
2023-03-19T14:14:52.000Z,3518
2023-03-19T14:16:07.657Z,3523
2023-03-19T14:17:23.843Z,4964
2023-03-19T14:18:38.000Z,4260
2023-03-19T14:19:54.000Z,4073
2023-03-19T14:21:10.000Z,4413
2023-03-19T14:22:26.000Z,4657
2023-03-19T14:23:42.000Z,4475
2023-03-19T14:24:59.000Z,4405
2023-03-19T14:26:15.000Z,4251
2023-03-19T14:27:31.000Z,4081
2023-03-19T14:28:47.000Z,3743
2023-03-19T14:30:03.000Z,4051
2023-03-19T14:31:20.000Z,4332
2023-03-19T14:32:36.000Z,4323
2023-03-19T14:33:52.000Z,4103
2023-03-19T14:35:08.000Z,3891
2023-03-19T14:36:24.000Z,3968
2023-03-19T14:37:40.000Z,3999
2023-03-19T14:38:56.000Z,3982
2023-03-19T14:40:12.000Z,4107
2023-03-19T14:41:29.000Z,4339
2023-03-19T14:42:45.586Z,4555
2023-03-19T14:44:01.815Z,4516
2023-03-19T14:45:16.000Z,4477
2023-03-19T14:46:32.000Z,3900
2023-03-19T14:47:47.000Z,4022
2023-03-19T14:49:02.000Z,3690
2023-03-19T14:50:18.000Z,3504
2023-03-19T14:51:35.000Z,3707
2023-03-19T14:52:51.000Z,3941
2023-03-19T14:54:07.768Z,3650
2023-03-19T14:55:23.992Z,3470
2023-03-19T14:56:39.000Z,3243
2023-03-19T14:57:56.000Z,3304
2023-03-19T14:59:12.000Z,3311
2023-03-19T15:00:28.000Z,2957
2023-03-19T15:01:44.000Z,2699
2023-03-19T15:03:01.000Z,2501
2023-03-19T15:04:17.000Z,2406
2023-03-19T15:05:32.000Z,2394
2023-03-19T15:06:49.113Z,2278
2023-03-19T15:08:05.000Z,2531
2023-03-19T15:09:21.000Z,2232
2023-03-19T15:10:37.000Z,2055
2023-03-19T15:11:53.000Z,1974
2023-03-19T15:13:09.000Z,1925
2023-03-19T15:14:25.000Z,1787
2023-03-19T15:15:41.000Z,1638
2023-03-19T15:16:56.000Z,1521
2023-03-19T15:18:12.000Z,1415
2023-03-19T15:19:27.000Z,1387
2023-03-19T15:20:42.000Z,1391
2023-03-19T15:21:58.000Z,1384
2023-03-19T15:23:15.000Z,1353
2023-03-19T15:24:31.000Z,1325
2023-03-19T15:25:47.000Z,1342
2023-03-19T15:27:03.000Z,1366
2023-03-19T15:28:19.000Z,1333
2023-03-19T15:29:36.000Z,1329
2023-03-19T15:30:52.000Z,1373
2023-03-19T15:32:08.896Z,1396
2023-03-19T15:33:24.000Z,1347
2023-03-19T15:34:41.000Z,1377
2023-03-19T15:35:57.596Z,1435
2023-03-19T15:37:12.000Z,1338
2023-03-19T15:38:29.051Z,1316
2023-03-19T15:39:45.000Z,1317
2023-03-19T15:41:01.510Z,1281
2023-03-19T15:42:17.000Z,1244
2023-03-19T15:43:33.000Z,1195
2023-03-19T15:44:49.000Z,1147
2023-03-19T15:46:06.465Z,1071
2023-03-19T15:47:21.000Z,996
2023-03-19T15:48:36.000Z,916
2023-03-19T15:49:51.000Z,868
2023-03-19T15:51:07.000Z,856
2023-03-19T15:52:23.000Z,883
2023-03-19T15:53:39.000Z,920
2023-03-19T15:54:55.000Z,951
2023-03-19T15:56:12.000Z,1138
2023-03-19T15:57:28.000Z,1391
2023-03-19T15:58:44.000Z,1443
2023-03-19T16:00:00.000Z,1485
2023-03-19T16:01:17.000Z,1416
2023-03-19T16:02:33.000Z,1308
2023-03-19T16:03:49.000Z,1252
2023-03-19T16:05:05.000Z,1144
2023-03-19T16:06:22.000Z,1075
2023-03-19T16:07:37.000Z,1026
2023-03-19T16:08:53.000Z,987
2023-03-19T16:10:09.989Z,995
2023-03-19T16:11:25.000Z,1045
2023-03-19T16:12:42.000Z,1095
2023-03-19T16:13:58.000Z,1140
2023-03-19T16:15:14.000Z,1147
2023-03-19T16:16:30.000Z,1105
2023-03-19T16:17:47.000Z,1093
2023-03-19T16:19:03.000Z,1118
2023-03-19T16:20:19.000Z,1177
2023-03-19T16:21:35.000Z,1276
2023-03-19T16:22:52.000Z,1334
2023-03-19T16:24:07.000Z,1345
2023-03-19T16:25:23.000Z,1321
2023-03-19T16:26:39.000Z,1274
2023-03-19T16:27:56.000Z,1203
2023-03-19T16:29:12.000Z,1175
2023-03-19T16:30:28.000Z,1137
2023-03-19T16:31:44.000Z,1074
2023-03-19T16:33:00.000Z,1011
2023-03-19T16:34:17.000Z,960
2023-03-19T16:35:33.000Z,901
2023-03-19T16:36:49.000Z,843
2023-03-19T16:38:05.000Z,791
2023-03-19T16:39:22.000Z,771
2023-03-19T16:40:37.614Z,773
2023-03-19T16:41:53.000Z,771
2023-03-19T16:43:09.000Z,765
2023-03-19T16:44:26.000Z,755
2023-03-19T16:45:42.000Z,784
2023-03-19T16:46:58.000Z,793
2023-03-19T16:48:14.000Z,766
2023-03-19T16:49:31.384Z,801
2023-03-19T16:50:47.000Z,837
2023-03-19T16:52:03.000Z,836
2023-03-19T16:53:19.000Z,826
2023-03-19T16:54:35.000Z,785
2023-03-19T16:55:52.000Z,777
2023-03-19T16:57:07.000Z,753
2023-03-19T16:58:23.000Z,711
2023-03-19T16:59:39.000Z,674
2023-03-19T17:00:56.359Z,647
2023-03-19T17:02:12.000Z,638
2023-03-19T17:03:28.000Z,609
2023-03-19T17:04:44.000Z,580
2023-03-19T17:06:01.000Z,552
2023-03-19T17:07:17.000Z,519
2023-03-19T17:08:33.000Z,486
2023-03-19T17:09:49.000Z,457
2023-03-19T17:11:05.000Z,432
2023-03-19T17:12:22.000Z,406
2023-03-19T17:13:37.726Z,380
2023-03-19T17:14:53.000Z,370
2023-03-19T17:16:09.000Z,353
2023-03-19T17:17:26.000Z,313
2023-03-19T17:18:42.000Z,292
2023-03-19T17:19:58.000Z,260
2023-03-19T17:21:14.000Z,246
2023-03-19T17:22:31.000Z,226
2023-03-19T17:23:47.000Z,227
2023-03-19T17:25:03.000Z,212
2023-03-19T17:26:19.800Z,191
2023-03-19T17:27:36.000Z,161
2023-03-19T17:28:52.000Z,137
2023-03-19T17:30:07.000Z,117
2023-03-19T17:31:23.000Z,95